createdAt,value
2022-11-16T00:01:42.860Z,3.20
2022-11-16T00:04:11.810Z,3.78
2022-11-16T00:06:39.407Z,3.30
2022-11-16T00:09:25.594Z,3.63
2022-11-16T00:12:04.881Z,3.53
2022-11-16T00:14:33.881Z,3.65
2022-11-16T00:17:01.051Z,3.65
2022-11-16T00:19:28.372Z,3.22
2022-11-16T00:21:55.113Z,3.17
2022-11-16T00:24:23.296Z,3.80
2022-11-16T00:26:50.544Z,3.10
2022-11-16T00:29:19.666Z,3.33
2022-11-16T00:31:47.107Z,3.17
2022-11-16T00:34:16.531Z,3.42
2022-11-16T00:36:43.317Z,3.45
2022-11-16T00:39:14.557Z,3.03
2022-11-16T00:41:42.040Z,3.53
2022-11-16T00:44:09.566Z,3.47
2022-11-16T00:46:36.339Z,2.88
2022-11-16T00:49:05.500Z,2.88
2022-11-16T00:51:32.906Z,3.17
2022-11-16T00:53:59.776Z,3.42
2022-11-16T00:56:26.605Z,3.58
2022-11-16T00:58:53.374Z,3.65
2022-11-16T01:01:21.697Z,3.83
2022-11-16T01:03:50.475Z,3.45
2022-11-16T01:06:17.434Z,3.70
2022-11-16T01:08:45.029Z,3.80
2022-11-16T01:11:32.806Z,3.78
2022-11-16T01:14:02.500Z,3.20
2022-11-16T01:16:29.241Z,3.42
2022-11-16T01:18:56.061Z,3.70
2022-11-16T01:21:23.410Z,3.45
2022-11-16T01:23:50.668Z,4.03
2022-11-16T01:26:17.532Z,3.55
2022-11-16T01:28:44.434Z,3.42
2022-11-16T01:31:12.552Z,3.85
2022-11-16T01:33:40.731Z,3.90
2022-11-16T01:36:16.763Z,4.10
2022-11-16T01:38:46.601Z,3.65
2022-11-16T01:41:16.825Z,4.00
2022-11-16T01:44:01.231Z,3.95
2022-11-16T01:46:34.124Z,4.13
2022-11-16T01:49:10.077Z,3.92
2022-11-16T01:51:37.153Z,4.38
2022-11-16T01:54:06.277Z,3.95
2022-11-16T01:56:36.221Z,4.20
2022-11-16T01:59:20.198Z,4.80
2022-11-16T02:01:47.888Z,4.78
2022-11-16T02:04:14.643Z,4.70
2022-11-16T02:07:29.310Z,4.22
2022-11-16T02:09:57.394Z,5.13
2022-11-16T02:12:57.149Z,4.85
2022-11-16T02:15:50.476Z,4.53
2022-11-16T02:18:38.320Z,4.93
2022-11-16T02:21:30.998Z,5.10
2022-11-16T02:24:19.181Z,4.80
2022-11-16T02:27:00.841Z,5.38
2022-11-16T02:29:36.110Z,5.25
2022-11-16T02:32:41.656Z,5.07
2022-11-16T02:35:14.035Z,5.07
2022-11-16T02:37:49.610Z,4.82
2022-11-16T02:40:17.684Z,5.53
2022-11-16T02:42:50.193Z,5.25
2022-11-16T02:45:22.202Z,5.50
2022-11-16T02:47:50.787Z,5.93
2022-11-16T02:50:19.627Z,5.20
2022-11-16T02:52:46.465Z,5.82
2022-11-16T02:55:13.502Z,5.72
2022-11-16T02:58:14.066Z,5.90
2022-11-16T03:00:52.060Z,5.40
2022-11-16T03:03:37.481Z,5.40
2022-11-16T03:06:11.269Z,5.97
2022-11-16T03:08:53.159Z,6.25
2022-11-16T03:11:38.568Z,6.38
2022-11-16T03:14:12.351Z,6.82
2022-11-16T03:16:41.437Z,7.20
2022-11-16T03:19:13.642Z,6.93
2022-11-16T03:21:45.594Z,6.82
2022-11-16T03:24:13.746Z,6.32
2022-11-16T03:26:54.119Z,6.50
2022-11-16T03:29:26.426Z,6.60
2022-11-16T03:31:59.787Z,5.53
2022-11-16T03:34:31.038Z,6.53
2022-11-16T03:36:59.240Z,6.30
2022-11-16T03:39:30.453Z,6.13
2022-11-16T03:41:58.407Z,5.95
2022-11-16T03:44:25.750Z,6.22
2022-11-16T03:46:52.481Z,6.30
2022-11-16T03:49:23.039Z,6.40
2022-11-16T03:51:51.826Z,6.20
2022-11-16T03:54:18.625Z,5.63
2022-11-16T03:56:45.285Z,6.00
2022-11-16T03:59:12.434Z,5.93
2022-11-16T04:01:44.381Z,5.45
2022-11-16T04:04:32.989Z,5.65
2022-11-16T04:07:18.540Z,5.72
2022-11-16T04:10:03.956Z,5.43
2022-11-16T04:12:49.848Z,5.70
2022-11-16T04:15:35.364Z,5.15
2022-11-16T04:18:20.568Z,6.18
2022-11-16T04:21:05.950Z,5.65
2022-11-16T04:23:51.139Z,5.57
2022-11-16T04:26:18.092Z,5.60
2022-11-16T04:28:44.752Z,5.30
2022-11-16T04:31:30.001Z,5.57
2022-11-16T04:34:27.878Z,5.63
2022-11-16T04:37:26.938Z,5.22
2022-11-16T04:39:53.918Z,5.05
2022-11-16T04:42:22.348Z,4.97
2022-11-16T04:45:09.825Z,5.43
2022-11-16T04:47:50.090Z,5.13
2022-11-16T04:50:19.151Z,5.03
2022-11-16T04:52:45.909Z,4.88
2022-11-16T04:55:14.765Z,4.93
2022-11-16T04:57:44.153Z,5.07
2022-11-16T05:00:11.916Z,5.10
2022-11-16T05:02:39.880Z,4.72
2022-11-16T05:05:07.188Z,5.20
2022-11-16T05:07:35.181Z,5.15
2022-11-16T05:10:09.286Z,3.72
2022-11-16T05:12:36.271Z,4.97
2022-11-16T05:15:06.116Z,4.78
2022-11-16T05:17:34.112Z,4.80
2022-11-16T05:20:20.050Z,4.07
2022-11-16T05:22:58.238Z,3.80
2022-11-16T05:25:33.805Z,4.40
2022-11-16T05:28:04.656Z,4.60
2022-11-16T05:30:33.878Z,3.80
2022-11-16T05:33:02.736Z,4.50
2022-11-16T05:35:32.795Z,3.90
2022-11-16T05:38:01.281Z,3.72
2022-11-16T05:40:29.052Z,3.70
2022-11-16T05:42:58.362Z,3.55
2022-11-16T05:45:27.599Z,3.58
2022-11-16T05:47:55.990Z,3.65
2022-11-16T05:50:22.809Z,3.20
2022-11-16T05:53:02.710Z,3.10
2022-11-16T05:55:29.387Z,3.05
2022-11-16T05:57:56.193Z,2.78
2022-11-16T06:00:22.898Z,2.83
2022-11-16T06:02:52.557Z,2.88
2022-11-16T06:05:26.812Z,2.42
2022-11-16T06:07:54.618Z,2.88
2022-11-16T06:10:24.363Z,2.97
2022-11-16T06:12:55.097Z,3.33
2022-11-16T06:15:23.275Z,2.95
2022-11-16T06:17:50.283Z,3.13
2022-11-16T06:20:17.433Z,3.25
2022-11-16T06:22:45.046Z,3.15
2022-11-16T06:25:13.154Z,3.28
2022-11-16T06:27:42.967Z,3.58
2022-11-16T06:30:11.938Z,3.15
2022-11-16T06:32:40.136Z,2.90
2022-11-16T06:35:07.963Z,2.90
2022-11-16T06:37:35.054Z,2.85
2022-11-16T06:40:03.443Z,3.03
2022-11-16T06:42:35.313Z,2.58
2022-11-16T06:45:02.385Z,2.40
2022-11-16T06:47:35.957Z,1.75
2022-11-16T06:50:03.278Z,1.70
2022-11-16T06:52:30.156Z,1.83
2022-11-16T06:54:57.838Z,1.80
2022-11-16T06:57:24.731Z,1.90
2022-11-16T06:59:51.419Z,1.58
2022-11-16T07:02:22.859Z,1.95
2022-11-16T07:04:49.723Z,1.70
2022-11-16T07:07:16.579Z,1.70
2022-11-16T07:09:45.088Z,1.75
2022-11-16T07:12:13.623Z,2.40
2022-11-16T07:14:41.430Z,2.33
2022-11-16T07:17:10.012Z,1.83
2022-11-16T07:19:37.219Z,1.88
2022-11-16T07:22:05.444Z,2.40
2022-11-16T07:24:33.046Z,2.00
2022-11-16T07:26:59.891Z,2.15
2022-11-16T07:29:30.784Z,2.10
2022-11-16T07:32:12.557Z,2.55
2022-11-16T07:34:59.814Z,2.15
2022-11-16T07:37:27.739Z,2.15
2022-11-16T07:39:54.549Z,2.28
2022-11-16T07:42:22.907Z,2.08
2022-11-16T07:44:59.991Z,2.60
2022-11-16T07:47:26.901Z,2.75
2022-11-16T07:49:54.795Z,2.25
2022-11-16T07:52:25.084Z,2.53
2022-11-16T07:55:06.509Z,2.17
2022-11-16T07:57:34.157Z,2.30
2022-11-16T08:00:06.147Z,2.22
2022-11-16T08:02:46.100Z,2.25
2022-11-16T08:05:17.846Z,2.40
2022-11-16T08:07:45.346Z,2.47
2022-11-16T08:10:12.582Z,2.30
2022-11-16T08:12:40.267Z,2.45
2022-11-16T08:15:07.830Z,2.83
2022-11-16T08:17:34.564Z,2.75
2022-11-16T08:20:03.540Z,2.88
2022-11-16T08:22:30.370Z,3.13
2022-11-16T08:24:57.708Z,3.10
2022-11-16T08:27:25.307Z,2.83
2022-11-16T08:29:54.445Z,4.10
2022-11-16T08:32:24.399Z,4.03
2022-11-16T08:34:53.153Z,3.50
2022-11-16T08:37:20.306Z,2.75
2022-11-16T08:39:48.072Z,2.90
2022-11-16T08:42:14.801Z,3.22
2022-11-16T08:44:46.173Z,4.15
2022-11-16T08:47:14.902Z,3.97
2022-11-16T08:49:49.711Z,2.92
2022-11-16T08:52:18.555Z,2.75
2022-11-16T08:54:45.934Z,2.65
2022-11-16T08:57:12.653Z,2.83
2022-11-16T08:59:42.903Z,2.58
2022-11-16T09:02:12.991Z,2.42
2022-11-16T09:04:39.845Z,2.88
2022-11-16T09:07:06.565Z,2.50
2022-11-16T09:09:33.242Z,1.90
2022-11-16T09:11:59.877Z,2.30
2022-11-16T09:14:28.933Z,2.22
2022-11-16T09:16:55.721Z,2.33
2022-11-16T09:19:22.429Z,2.28
2022-11-16T09:21:51.156Z,2.45
2022-11-16T09:24:19.105Z,3.05
2022-11-16T09:26:45.913Z,2.35
2022-11-16T09:29:15.008Z,2.67
2022-11-16T09:31:41.863Z,2.17
2022-11-16T09:34:10.360Z,2.38
2022-11-16T09:36:37.190Z,2.42
2022-11-16T09:39:28.935Z,2.05
2022-11-16T09:41:56.651Z,2.40
2022-11-16T09:44:35.513Z,2.40
2022-11-16T09:47:02.347Z,2.38
2022-11-16T09:49:33.756Z,2.08
2022-11-16T09:52:08.067Z,2.60
2022-11-16T09:54:38.029Z,2.50
2022-11-16T09:57:12.214Z,2.58
2022-11-16T09:59:46.826Z,3.08
2022-11-16T10:02:59.655Z,2.83
2022-11-16T10:05:33.088Z,2.70
2022-11-16T10:08:23.070Z,2.33
2022-11-16T10:10:59.695Z,2.22
2022-11-16T10:13:46.223Z,2.80
2022-11-16T10:16:23.811Z,2.28
2022-11-16T10:18:56.258Z,2.42
2022-11-16T10:21:42.905Z,2.70
2022-11-16T10:24:43.577Z,2.78
2022-11-16T10:27:29.107Z,2.05
2022-11-16T10:30:16.902Z,1.55
2022-11-16T10:33:01.048Z,2.00
2022-11-16T10:35:32.610Z,1.55
2022-11-16T10:38:02.626Z,1.67
2022-11-16T10:40:39.813Z,1.35
2022-11-16T10:43:18.582Z,1.48
2022-11-16T10:46:17.215Z,1.30
2022-11-16T10:49:36.960Z,1.23
2022-11-16T10:52:03.770Z,1.40
2022-11-16T10:54:30.486Z,1.55
2022-11-16T10:57:03.764Z,1.60
2022-11-16T10:59:42.243Z,1.50
2022-11-16T11:02:34.693Z,1.50
2022-11-16T11:05:04.082Z,1.30
2022-11-16T11:07:37.673Z,1.13
2022-11-16T11:10:05.893Z,1.42
2022-11-16T11:12:38.280Z,1.35
2022-11-16T11:15:10.989Z,1.40
2022-11-16T11:17:42.732Z,1.35
2022-11-16T11:20:15.842Z,1.20
2022-11-16T11:23:04.495Z,1.35
2022-11-16T11:25:34.810Z,1.10
2022-11-16T11:28:14.369Z,1.27
2022-11-16T11:30:41.062Z,1.45
2022-11-16T11:33:12.478Z,1.30
2022-11-16T11:35:39.131Z,1.33
2022-11-16T11:38:08.336Z,1.73
2022-11-16T11:40:36.270Z,1.40
2022-11-16T11:43:05.579Z,1.90
2022-11-16T11:45:35.927Z,1.73
2022-11-16T11:48:12.662Z,1.45
2022-11-16T11:50:52.854Z,1.40
2022-11-16T11:53:25.598Z,1.20
2022-11-16T11:55:56.789Z,1.52
2022-11-16T11:58:29.144Z,1.30
2022-11-16T12:01:25.086Z,1.30
2022-11-16T12:04:26.239Z,1.15
2022-11-16T12:07:03.220Z,1.70
2022-11-16T12:09:33.107Z,1.70
2022-11-16T12:12:14.514Z,1.13
2022-11-16T12:14:50.588Z,1.33
2022-11-16T12:17:17.184Z,1.27
2022-11-16T12:19:49.651Z,1.40
2022-11-16T12:22:35.026Z,1.70
2022-11-16T12:25:10.900Z,1.40
2022-11-16T12:28:14.686Z,1.00
2022-11-16T12:31:04.543Z,1.33
2022-11-16T12:33:49.900Z,1.58
2022-11-16T12:36:54.406Z,1.10
2022-11-16T12:39:29.978Z,1.60
2022-11-16T12:42:12.682Z,1.35
2022-11-16T12:45:02.131Z,1.35
2022-11-16T12:47:41.109Z,1.20
2022-11-16T12:50:16.809Z,1.10
2022-11-16T12:52:50.713Z,1.13
2022-11-16T12:55:26.439Z,1.30
2022-11-16T12:58:01.676Z,1.40
2022-11-16T13:00:29.769Z,1.27
2022-11-16T13:02:59.150Z,1.50
2022-11-16T13:05:54.216Z,1.40
2022-11-16T13:08:38.167Z,1.27
2022-11-16T13:11:11.974Z,1.17
2022-11-16T13:13:39.419Z,1.70
2022-11-16T13:16:07.726Z,1.15
2022-11-16T13:18:38.991Z,1.30
2022-11-16T13:21:17.768Z,1.30
2022-11-16T13:24:07.527Z,1.45
2022-11-16T13:26:55.896Z,1.58
2022-11-16T13:29:36.294Z,1.33
2022-11-16T13:32:10.895Z,1.10
2022-11-16T13:34:39.282Z,1.05
2022-11-16T13:37:55.248Z,1.30
2022-11-16T13:40:24.867Z,1.42
2022-11-16T13:43:01.631Z,1.35
2022-11-16T13:45:35.401Z,1.42
2022-11-16T13:48:10.430Z,1.20
2022-11-16T13:50:40.157Z,1.40
2022-11-16T13:56:04.542Z,1.20
2022-11-16T13:58:36.591Z,1.60
2022-11-16T14:01:17.508Z,1.20
2022-11-16T14:03:46.299Z,1.10
2022-11-16T14:06:13.038Z,1.65
2022-11-16T14:08:39.570Z,1.40
2022-11-16T14:11:28.701Z,1.52
2022-11-16T14:13:55.846Z,1.40
2022-11-16T14:16:22.908Z,1.88
2022-11-16T14:18:51.659Z,1.65
2022-11-16T14:21:43.063Z,1.20
2022-11-16T14:24:09.704Z,2.00
2022-11-16T14:27:01.360Z,1.63
2022-11-16T14:30:11.744Z,2.00
2022-11-16T14:32:47.231Z,1.90
2022-11-16T14:35:30.253Z,1.70
2022-11-16T14:38:23.148Z,1.75
2022-11-16T14:40:56.252Z,1.60
2022-11-16T14:43:39.451Z,1.63
2022-11-16T14:46:18.665Z,1.45
2022-11-16T14:48:46.556Z,1.70
2022-11-16T14:51:21.467Z,2.30
2022-11-16T14:53:54.652Z,2.00
2022-11-16T14:56:21.497Z,1.20
2022-11-16T14:58:57.089Z,1.60
2022-11-16T15:01:47.335Z,1.67
2022-11-16T15:04:16.660Z,1.65
2022-11-16T15:06:48.011Z,1.60
2022-11-16T15:09:31.091Z,2.05
2022-11-16T15:12:17.825Z,1.65
2022-11-16T15:14:47.372Z,2.17
2022-11-16T15:17:22.574Z,1.90
2022-11-16T15:19:55.707Z,1.77
2022-11-16T15:22:24.324Z,2.20
2022-11-16T15:24:59.177Z,1.63
2022-11-16T15:27:44.940Z,1.80
2022-11-16T15:30:20.794Z,1.95
2022-11-16T15:32:49.315Z,2.28
2022-11-16T15:35:36.992Z,2.58
2022-11-16T15:38:12.118Z,2.42
2022-11-16T15:40:38.826Z,2.50
2022-11-16T15:43:06.765Z,2.13
2022-11-16T15:45:34.330Z,2.45
2022-11-16T15:48:02.760Z,3.22
2022-11-16T15:50:29.542Z,3.03
2022-11-16T15:52:59.621Z,2.63
2022-11-16T15:55:37.654Z,3.20
2022-11-16T15:58:25.701Z,2.55
2022-11-16T16:00:53.298Z,2.72
2022-11-16T16:03:29.597Z,2.70
2022-11-16T16:05:57.053Z,3.22
2022-11-16T16:08:35.077Z,2.83
2022-11-16T16:11:10.576Z,3.58
2022-11-16T16:13:42.807Z,2.60
2022-11-16T16:16:28.724Z,3.13
2022-11-16T16:19:05.112Z,2.92
2022-11-16T16:21:42.884Z,3.22
2022-11-16T16:24:44.210Z,3.50
2022-11-16T16:27:13.016Z,3.70
2022-11-16T16:29:40.012Z,4.25
2022-11-16T16:32:10.753Z,4.65
2022-11-16T16:34:40.897Z,5.05
2022-11-16T16:37:11.075Z,4.97
2022-11-16T16:39:38.834Z,4.75
2022-11-16T16:42:12.507Z,4.65
2022-11-16T16:44:39.753Z,4.82
2022-11-16T16:47:06.783Z,4.22
2022-11-16T16:49:36.053Z,3.92
2022-11-16T16:52:05.447Z,4.15
2022-11-16T16:54:32.363Z,4.30
2022-11-16T16:57:03.115Z,4.22
2022-11-16T16:59:36.010Z,3.50
2022-11-16T17:02:04.492Z,4.85
2022-11-16T17:04:33.514Z,5.07
2022-11-16T17:07:00.220Z,4.57
2022-11-16T17:09:27.199Z,4.03
2022-11-16T17:11:54.834Z,3.85
2022-11-16T17:14:24.600Z,2.63
2022-11-16T17:16:55.018Z,2.67
2022-11-16T17:19:24.342Z,3.00
2022-11-16T17:21:51.896Z,2.83
2022-11-16T17:24:19.016Z,2.92
2022-11-16T17:26:48.338Z,3.42
2022-11-16T17:29:15.767Z,2.83
2022-11-16T17:31:44.198Z,3.03
2022-11-16T17:34:13.840Z,2.40
2022-11-16T17:36:43.160Z,2.75
2022-11-16T17:39:09.760Z,2.85
2022-11-16T17:41:47.816Z,2.70
2022-11-16T17:44:18.681Z,3.15
2022-11-16T17:46:48.172Z,2.72
2022-11-16T17:49:14.917Z,2.70
2022-11-16T17:51:41.832Z,2.90
2022-11-16T17:54:08.523Z,3.28
2022-11-16T17:56:35.273Z,3.28
2022-11-16T17:59:02.022Z,2.90
2022-11-16T18:01:28.812Z,3.75
2022-11-16T18:03:55.916Z,4.10
2022-11-16T18:06:25.094Z,4.18
2022-11-16T18:08:52.569Z,4.13
2022-11-16T18:11:24.656Z,3.88
2022-11-16T18:14:00.515Z,3.70
2022-11-16T18:16:31.903Z,4.05
2022-11-16T18:19:04.257Z,3.50
2022-11-16T18:21:33.517Z,3.40
2022-11-16T18:24:01.043Z,3.47
2022-11-16T18:26:28.526Z,3.67
2022-11-16T18:28:55.175Z,3.28
2022-11-16T18:31:23.301Z,2.92
2022-11-16T18:33:50.479Z,3.40
2022-11-16T18:36:18.395Z,3.28
2022-11-16T18:38:45.802Z,2.67
2022-11-16T18:41:12.426Z,2.53
2022-11-16T18:44:02.706Z,1.95
2022-11-16T18:46:31.419Z,2.08
2022-11-16T18:49:06.186Z,2.03
2022-11-16T18:51:33.965Z,2.45
2022-11-16T18:54:00.615Z,2.10
2022-11-16T18:56:27.524Z,2.17
2022-11-16T18:58:54.211Z,2.00
2022-11-16T19:01:23.723Z,2.40
2022-11-16T19:03:51.857Z,2.42
2022-11-16T19:06:19.143Z,2.03
2022-11-16T19:08:53.615Z,2.10
2022-11-16T19:11:24.379Z,2.80
2022-11-16T19:13:57.793Z,2.25
2022-11-16T19:16:25.471Z,2.35
2022-11-16T19:18:52.697Z,2.50
2022-11-16T19:21:19.914Z,2.67
2022-11-16T19:23:48.329Z,2.35
2022-11-16T19:26:17.311Z,2.47
2022-11-16T19:28:46.722Z,2.25
2022-11-16T19:31:17.533Z,2.60
2022-11-16T19:33:45.185Z,3.08
2022-11-16T19:36:18.439Z,2.95
2022-11-16T19:38:46.947Z,2.90
2022-11-16T19:41:22.664Z,2.88
2022-11-16T19:43:52.926Z,2.95
2022-11-16T19:46:24.822Z,3.03
2022-11-16T19:48:52.093Z,2.80
2022-11-16T19:51:24.795Z,3.08
2022-11-16T19:53:52.207Z,2.58
2022-11-16T19:56:21.653Z,2.60
2022-11-16T19:58:48.463Z,3.10
2022-11-16T20:01:26.547Z,2.47
2022-11-16T20:03:53.815Z,2.97
2022-11-16T20:06:26.532Z,3.10
2022-11-16T20:08:55.872Z,3.55
2022-11-16T20:11:24.167Z,2.75
2022-11-16T20:13:53.748Z,2.60
2022-11-16T20:16:27.436Z,3.15
2022-11-16T20:18:54.880Z,2.78
2022-11-16T20:21:28.780Z,2.85
2022-11-16T20:23:59.168Z,2.50
2022-11-16T20:26:32.054Z,3.10
2022-11-16T20:28:59.896Z,2.90
2022-11-16T20:31:28.308Z,2.92
2022-11-16T20:34:01.076Z,3.00
2022-11-16T20:36:29.563Z,3.17
2022-11-16T20:38:59.858Z,3.10
2022-11-16T20:41:32.847Z,2.78
2022-11-16T20:44:01.280Z,3.67
2022-11-16T20:46:29.979Z,4.10
2022-11-16T20:48:57.209Z,3.20
2022-11-16T20:51:24.159Z,3.45
2022-11-16T20:53:52.169Z,2.95
2022-11-16T20:56:19.704Z,3.65
2022-11-16T20:58:47.558Z,3.92
2022-11-16T21:01:18.712Z,3.53
2022-11-16T21:03:45.465Z,3.80
2022-11-16T21:06:13.554Z,3.70
2022-11-16T21:08:41.448Z,3.55
2022-11-16T21:11:20.137Z,3.55
2022-11-16T21:14:06.133Z,3.53
2022-11-16T21:16:34.079Z,3.92
2022-11-16T21:19:01.112Z,4.00
2022-11-16T21:21:27.776Z,3.65
2022-11-16T21:23:55.067Z,3.95
2022-11-16T21:26:29.408Z,3.78
2022-11-16T21:28:56.968Z,4.15
2022-11-16T21:31:29.943Z,3.95
2022-11-16T21:33:57.170Z,3.47
2022-11-16T21:36:25.643Z,3.92
2022-11-16T21:38:52.758Z,3.72
2022-11-16T21:41:20.550Z,3.60
2022-11-16T21:43:47.322Z,3.72
2022-11-16T21:46:18.396Z,3.38
2022-11-16T21:48:45.309Z,3.80
2022-11-16T21:51:17.701Z,3.80
2022-11-16T21:53:45.705Z,4.25
2022-11-16T21:56:14.994Z,3.75
2022-11-16T21:58:43.888Z,3.70
2022-11-16T22:01:12.686Z,3.28
2022-11-16T22:03:39.865Z,3.45
2022-11-16T22:06:26.259Z,3.40
2022-11-16T22:08:53.019Z,3.30
2022-11-16T22:11:22.238Z,3.58
2022-11-16T22:13:50.124Z,3.13
2022-11-16T22:16:18.011Z,3.25
2022-11-16T22:18:45.543Z,3.35
2022-11-16T22:21:12.468Z,3.45
2022-11-16T22:23:41.243Z,3.00
2022-11-16T22:26:10.426Z,3.10
2022-11-16T22:28:37.463Z,3.35
2022-11-16T22:31:12.655Z,3.03
2022-11-16T22:33:39.827Z,3.30
2022-11-16T22:36:09.252Z,2.85
2022-11-16T22:38:36.562Z,2.33
2022-11-16T22:41:04.099Z,2.60
2022-11-16T22:43:31.673Z,3.22
2022-11-16T22:46:02.966Z,2.75
2022-11-16T22:48:38.129Z,3.13
2022-11-16T22:51:15.306Z,2.78
2022-11-16T22:53:41.990Z,3.17
2022-11-16T22:56:09.496Z,2.78
2022-11-16T22:58:37.486Z,2.97
2022-11-16T23:01:17.324Z,2.60
2022-11-16T23:03:44.134Z,2.58
2022-11-16T23:06:11.079Z,3.17
2022-11-16T23:08:37.896Z,2.83
2022-11-16T23:11:25.675Z,3.30
2022-11-16T23:14:24.175Z,3.00
2022-11-16T23:16:51.030Z,2.80
2022-11-16T23:19:38.388Z,2.90
2022-11-16T23:22:24.764Z,2.92
2022-11-16T23:25:09.989Z,3.50
2022-11-16T23:27:58.311Z,2.72
2022-11-16T23:30:25.395Z,2.92
2022-11-16T23:32:52.427Z,2.97
2022-11-16T23:35:19.321Z,2.75
2022-11-16T23:37:49.924Z,2.45
2022-11-16T23:40:16.834Z,2.65
2022-11-16T23:43:02.064Z,2.38
2022-11-16T23:45:28.767Z,2.92
2022-11-16T23:47:55.347Z,2.72
2022-11-16T23:50:21.995Z,2.88
2022-11-16T23:52:48.602Z,2.72
2022-11-16T23:55:15.225Z,2.88
2022-11-16T23:57:41.900Z,2.53
